Archival Weather

Phoenix Sky Harbor Intl

Phoenix, Arizona (KPHX)

Report from: Thursday, December 7, 2023 7:51 PM MST
Current time: Thursday, July 18, 2024 7:20 PM MST

Current weather – Weather history – Daily summaries
Weather forecast

Temperature18.9°C (66.0°F)
Dew point2.8°C (37.0°F)
Winds 3 kts (1.5 m/s, 3.5 mph) South (180°)
Visibility10 mi. (16.1 km)
Clouds Sky clear
Altimeter29.88 in.Hg (1012 mB)
Relative humidity34 %
Density altitude647 ft. (197 m)
Sea-level pressure101.1 kPa (1011 mB, 29.85 in.Hg)
Remarks Automated weather observing station with precipitation discriminator
Pressure rising, then falling
Flight conditions Visual Meteorological Conditions
Raw dataKPHX 080251Z 18003KT 10SM CLR 19/03 A2988 RMK AO2 SLP110 T01890028 50000
An error has occurred. This application may no longer respond until reloaded. Reload 🗙